MKU869 PHTO-PHNL
Flight info
| Callsign | MKU869 |
|---|---|
| Flight time | 0h 50m |
| Altitude | 22000 |
| Route | PARIS4 PARIS V2 UPP V16 LNY SHLAE1 |
| Aircraft | DH8D/M-SDE2E3FGRY/H |
Departure
| Time | 2026-04-22 20:27 |
|---|---|
| Airport | Hilo International Airport (PHTO) |
Arrival
| Time | 2026-04-22 21:17 |
|---|---|
| Airport | Daniel K. Inouye International Airport (PHNL) |
| Time | Latitude | Longitude | Altitude | Speed | Heading |
|---|---|---|---|---|---|
| 2026-04-22 19:53 | 19.71551 | -155.03909 | 65 ft | 0 kts | 180° |
| 2026-04-22 20:13 | 19.71553 | -155.03909 | 66 ft | 1 kts | 179° |
| 2026-04-22 20:14 | 19.71568 | -155.03911 | 66 ft | 2 kts | 180° |
| 2026-04-22 20:14 | 19.71583 | -155.03911 | 66 ft | 2 kts | 180° |
| 2026-04-22 20:14 | 19.71598 | -155.03911 | 66 ft | 2 kts | 180° |
| 2026-04-22 20:14 | 19.71607 | -155.03911 | 66 ft | 2 kts | 178° |
| 2026-04-22 20:15 | 19.71622 | -155.03914 | 66 ft | 2 kts | 155° |
| 2026-04-22 20:15 | 19.71634 | -155.03923 | 66 ft | 2 kts | 135° |
| 2026-04-22 20:15 | 19.71643 | -155.03935 | 66 ft | 2 kts | 115° |
| 2026-04-22 20:15 | 19.71646 | -155.03950 | 66 ft | 2 kts | 94° |
| 2026-04-22 20:16 | 19.71647 | -155.03957 | 66 ft | 0 kts | 90° |
| 2026-04-22 20:17 | 19.71647 | -155.03947 | 66 ft | 2 kts | 90° |
| 2026-04-22 20:17 | 19.71647 | -155.03932 | 66 ft | 1 kts | 90° |
| 2026-04-22 20:17 | 19.71647 | -155.03926 | 66 ft | 0 kts | 90° |
| 2026-04-22 20:18 | 19.71647 | -155.03920 | 66 ft | 3 kts | 90° |
| 2026-04-22 20:18 | 19.71647 | -155.03877 | 66 ft | 7 kts | 90° |
| 2026-04-22 20:19 | 19.71647 | -155.03830 | 66 ft | 5 kts | 90° |
| 2026-04-22 20:19 | 19.71647 | -155.03799 | 65 ft | 3 kts | 90° |
| 2026-04-22 20:19 | 19.71647 | -155.03772 | 65 ft | 4 kts | 90° |
| 2026-04-22 20:19 | 19.71647 | -155.03742 | 65 ft | 4 kts | 90° |
| 2026-04-22 20:20 | 19.71650 | -155.03706 | 65 ft | 4 kts | 73° |
| 2026-04-22 20:20 | 19.71672 | -155.03680 | 65 ft | 5 kts | 25° |
| 2026-04-22 20:20 | 19.71717 | -155.03676 | 65 ft | 9 kts | 359° |
| 2026-04-22 20:20 | 19.71786 | -155.03676 | 65 ft | 10 kts | 1° |
| 2026-04-22 20:21 | 19.71859 | -155.03673 | 65 ft | 9 kts | 2° |
| 2026-04-22 20:21 | 19.71925 | -155.03676 | 65 ft | 9 kts | 358° |
| 2026-04-22 20:21 | 19.71985 | -155.03667 | 65 ft | 8 kts | 36° |
| 2026-04-22 20:21 | 19.72012 | -155.03622 | 64 ft | 5 kts | 80° |
| 2026-04-22 20:22 | 19.72014 | -155.03569 | 64 ft | 9 kts | 89° |
| 2026-04-22 20:22 | 19.72015 | -155.03511 | 64 ft | 6 kts | 89° |
| 2026-04-22 20:22 | 19.72015 | -155.03471 | 64 ft | 4 kts | 89° |
| 2026-04-22 20:22 | 19.72015 | -155.03448 | 64 ft | 2 kts | 89° |
| 2026-04-22 20:23 | 19.72015 | -155.03436 | 63 ft | 1 kts | 89° |
| 2026-04-22 20:23 | 19.72015 | -155.03377 | 63 ft | 19 kts | 90° |
| 2026-04-22 20:23 | 19.72015 | -155.03259 | 63 ft | 13 kts | 90° |
| 2026-04-22 20:23 | 19.72015 | -155.03177 | 62 ft | 9 kts | 90° |
| 2026-04-22 20:24 | 19.72015 | -155.03120 | 62 ft | 6 kts | 90° |
| 2026-04-22 20:24 | 19.72014 | -155.03072 | 62 ft | 7 kts | 90° |
| 2026-04-22 20:24 | 19.72016 | -155.03012 | 62 ft | 9 kts | 85° |
| 2026-04-22 20:24 | 19.72028 | -155.02963 | 62 ft | 5 kts | 50° |
| 2026-04-22 20:25 | 19.72049 | -155.02951 | 62 ft | 2 kts | 12° |
| 2026-04-22 20:25 | 19.72069 | -155.02948 | 62 ft | 6 kts | 7° |
| 2026-04-22 20:25 | 19.72118 | -155.02948 | 62 ft | 7 kts | 354° |
| 2026-04-22 20:25 | 19.72139 | -155.02977 | 62 ft | 5 kts | 273° |
| 2026-04-22 20:26 | 19.72140 | -155.03023 | 62 ft | 6 kts | 272° |
| 2026-04-22 20:26 | 19.72140 | -155.03120 | 62 ft | 39 kts | 271° |
| 2026-04-22 20:26 | 19.72138 | -155.03761 | 65 ft | 130 kts | 271° |
| 2026-04-22 20:26 | 19.72141 | -155.04854 | 249 ft | 163 kts | 271° |
| 2026-04-22 20:27 | 19.72155 | -155.06044 | 774 ft | 165 kts | 281° |
| 2026-04-22 20:27 | 19.72690 | -155.07150 | 915 ft | 189 kts | 327° |
| 2026-04-22 20:27 | 19.73913 | -155.07385 | 1326 ft | 188 kts | 22° |
| 2026-04-22 20:27 | 19.74907 | -155.06541 | 1992 ft | 184 kts | 53° |
| 2026-04-22 20:28 | 19.75671 | -155.05495 | 2622 ft | 187 kts | 54° |
| 2026-04-22 20:28 | 19.76452 | -155.04382 | 3270 ft | 192 kts | 54° |
| 2026-04-22 20:28 | 19.77221 | -155.03255 | 3952 ft | 192 kts | 54° |
| 2026-04-22 20:28 | 19.77987 | -155.02119 | 4504 ft | 196 kts | 54° |
| 2026-04-22 20:29 | 19.78787 | -155.00949 | 5108 ft | 198 kts | 50° |
| 2026-04-22 20:29 | 19.79939 | -155.00177 | 5604 ft | 201 kts | 12° |
| 2026-04-22 20:29 | 19.81324 | -154.99989 | 6148 ft | 203 kts | 6° |
| 2026-04-22 20:29 | 19.82740 | -154.99834 | 6720 ft | 205 kts | 5° |
| 2026-04-22 20:30 | 19.84139 | -154.99683 | 7274 ft | 206 kts | 5° |
| 2026-04-22 20:30 | 19.85592 | -154.99524 | 7934 ft | 208 kts | 5° |
| 2026-04-22 20:30 | 19.87017 | -154.99368 | 8567 ft | 208 kts | 5° |
| 2026-04-22 20:30 | 19.88458 | -154.99211 | 9135 ft | 211 kts | 5° |
| 2026-04-22 20:31 | 19.89931 | -154.99049 | 9730 ft | 212 kts | 5° |
| 2026-04-22 20:31 | 19.91374 | -154.98891 | 10337 ft | 210 kts | 5° |
| 2026-04-22 20:31 | 19.92901 | -154.98726 | 10459 ft | 231 kts | 5° |
| 2026-04-22 20:31 | 19.94558 | -154.98546 | 10792 ft | 240 kts | 5° |
| 2026-04-22 20:32 | 19.96236 | -154.98363 | 11211 ft | 244 kts | 5° |
| 2026-04-22 20:32 | 19.97936 | -154.98175 | 11696 ft | 244 kts | 5° |
| 2026-04-22 20:32 | 19.99630 | -154.97989 | 12170 ft | 244 kts | 5° |
| 2026-04-22 20:32 | 20.01270 | -154.97807 | 12605 ft | 243 kts | 5° |
| 2026-04-22 20:33 | 20.02978 | -154.97620 | 13003 ft | 246 kts | 5° |
| 2026-04-22 20:33 | 20.04674 | -154.97432 | 13503 ft | 243 kts | 5° |
| 2026-04-22 20:33 | 20.06373 | -154.97243 | 13842 ft | 247 kts | 5° |
| 2026-04-22 20:33 | 20.08075 | -154.97055 | 14225 ft | 248 kts | 5° |
| 2026-04-22 20:34 | 20.09814 | -154.96863 | 14573 ft | 252 kts | 5° |
| 2026-04-22 20:34 | 20.11569 | -154.96664 | 15056 ft | 257 kts | 5° |
| 2026-04-22 20:34 | 20.13336 | -154.96712 | 15738 ft | 255 kts | 344° |
| 2026-04-22 20:34 | 20.14786 | -154.97728 | 16215 ft | 258 kts | 309° |
| 2026-04-22 20:35 | 20.15456 | -154.99521 | 16688 ft | 269 kts | 281° |
| 2026-04-22 20:35 | 20.15650 | -155.01498 | 17389 ft | 269 kts | 278° |
| 2026-04-22 20:35 | 20.15800 | -155.03464 | 17961 ft | 272 kts | 277° |
| 2026-04-22 20:35 | 20.15939 | -155.05481 | 18583 ft | 274 kts | 277° |
| 2026-04-22 20:36 | 20.16067 | -155.07480 | 19195 ft | 276 kts | 277° |
| 2026-04-22 20:36 | 20.16192 | -155.09528 | 19776 ft | 278 kts | 276° |
| 2026-04-22 20:36 | 20.16314 | -155.11591 | 20387 ft | 280 kts | 276° |
| 2026-04-22 20:36 | 20.16428 | -155.13583 | 20985 ft | 279 kts | 276° |
| 2026-04-22 20:37 | 20.16546 | -155.15678 | 21545 ft | 282 kts | 276° |
| 2026-04-22 20:37 | 20.16654 | -155.17712 | 21932 ft | 276 kts | 275° |
| 2026-04-22 20:37 | 20.16762 | -155.19750 | 22051 ft | 278 kts | 275° |
| 2026-04-22 20:37 | 20.16873 | -155.21823 | 22086 ft | 284 kts | 275° |
| 2026-04-22 20:38 | 20.16987 | -155.23941 | 22095 ft | 289 kts | 275° |
| 2026-04-22 20:38 | 20.17104 | -155.26126 | 22101 ft | 296 kts | 275° |
| 2026-04-22 20:38 | 20.17220 | -155.28314 | 22101 ft | 302 kts | 275° |
| 2026-04-22 20:38 | 20.17336 | -155.30524 | 22102 ft | 305 kts | 275° |
| 2026-04-22 20:39 | 20.17457 | -155.32819 | 22104 ft | 310 kts | 275° |
| 2026-04-22 20:39 | 20.17576 | -155.35098 | 22108 ft | 314 kts | 275° |
| 2026-04-22 20:39 | 20.17698 | -155.37433 | 22109 ft | 316 kts | 275° |
| 2026-04-22 20:39 | 20.17820 | -155.39774 | 22112 ft | 319 kts | 275° |
| 2026-04-22 20:40 | 20.17944 | -155.42154 | 22111 ft | 320 kts | 275° |
| 2026-04-22 20:40 | 20.18065 | -155.44514 | 22116 ft | 322 kts | 275° |
| 2026-04-22 20:40 | 20.18188 | -155.46887 | 22118 ft | 324 kts | 275° |
| 2026-04-22 20:40 | 20.18309 | -155.49246 | 22115 ft | 323 kts | 275° |
| 2026-04-22 20:41 | 20.18432 | -155.51649 | 22120 ft | 324 kts | 275° |
| 2026-04-22 20:41 | 20.18556 | -155.54057 | 22120 ft | 326 kts | 275° |
| 2026-04-22 20:41 | 20.18677 | -155.56438 | 22118 ft | 326 kts | 275° |
| 2026-04-22 20:41 | 20.18801 | -155.58862 | 22116 ft | 328 kts | 275° |
| 2026-04-22 20:42 | 20.18923 | -155.61275 | 22109 ft | 326 kts | 275° |
| 2026-04-22 20:42 | 20.19044 | -155.63660 | 22109 ft | 327 kts | 275° |
| 2026-04-22 20:42 | 20.19167 | -155.66080 | 22110 ft | 328 kts | 275° |
| 2026-04-22 20:42 | 20.19260 | -155.67935 | 22109 ft | 326 kts | 275° |
| 2026-04-22 20:43 | 20.19403 | -155.70789 | 22105 ft | 325 kts | 275° |
| 2026-04-22 20:43 | 20.19524 | -155.73200 | 22106 ft | 327 kts | 275° |
| 2026-04-22 20:43 | 20.19644 | -155.75591 | 22104 ft | 326 kts | 275° |
| 2026-04-22 20:43 | 20.19765 | -155.77997 | 22104 ft | 327 kts | 275° |
| 2026-04-22 20:44 | 20.19887 | -155.80441 | 22101 ft | 328 kts | 275° |
| 2026-04-22 20:44 | 20.20005 | -155.82765 | 22097 ft | 326 kts | 275° |
| 2026-04-22 20:44 | 20.20491 | -155.85127 | 22088 ft | 324 kts | 294° |
| 2026-04-22 20:44 | 20.21505 | -155.87231 | 22093 ft | 323 kts | 299° |
| 2026-04-22 20:45 | 20.22570 | -155.89323 | 22097 ft | 324 kts | 299° |
| 2026-04-22 20:45 | 20.23644 | -155.91428 | 22098 ft | 326 kts | 299° |
| 2026-04-22 20:45 | 20.24715 | -155.93532 | 22097 ft | 324 kts | 299° |
| 2026-04-22 20:45 | 20.25796 | -155.95659 | 22100 ft | 325 kts | 299° |
| 2026-04-22 20:46 | 20.27938 | -155.99889 | 22094 ft | 323 kts | 299° |
| 2026-04-22 20:46 | 20.29010 | -156.02008 | 22097 ft | 325 kts | 299° |
| 2026-04-22 20:46 | 20.30063 | -156.04092 | 22098 ft | 325 kts | 299° |
| 2026-04-22 20:47 | 20.31134 | -156.06213 | 22100 ft | 327 kts | 299° |
| 2026-04-22 20:47 | 20.32218 | -156.08362 | 22098 ft | 326 kts | 299° |
| 2026-04-22 20:47 | 20.33280 | -156.10465 | 22096 ft | 326 kts | 299° |
| 2026-04-22 20:47 | 20.34357 | -156.12602 | 22100 ft | 327 kts | 299° |
| 2026-04-22 20:48 | 20.35393 | -156.14659 | 22096 ft | 324 kts | 299° |
| 2026-04-22 20:48 | 20.36467 | -156.16795 | 22099 ft | 325 kts | 299° |
| 2026-04-22 20:48 | 20.37531 | -156.18915 | 22097 ft | 326 kts | 299° |
| 2026-04-22 20:48 | 20.38494 | -156.20836 | 22096 ft | 324 kts | 298° |
| 2026-04-22 20:49 | 20.39616 | -156.23080 | 22098 ft | 325 kts | 299° |
| 2026-04-22 20:49 | 20.40666 | -156.25162 | 22099 ft | 326 kts | 299° |
| 2026-04-22 20:49 | 20.41718 | -156.27251 | 22097 ft | 325 kts | 299° |
| 2026-04-22 20:49 | 20.42792 | -156.29387 | 22099 ft | 327 kts | 299° |
| 2026-04-22 20:50 | 20.43839 | -156.31470 | 22097 ft | 326 kts | 299° |
| 2026-04-22 20:50 | 20.44899 | -156.33581 | 22098 ft | 326 kts | 299° |
| 2026-04-22 20:50 | 20.45977 | -156.35728 | 22094 ft | 326 kts | 299° |
| 2026-04-22 20:50 | 20.47027 | -156.37823 | 22093 ft | 326 kts | 299° |
| 2026-04-22 20:51 | 20.48109 | -156.39981 | 22096 ft | 327 kts | 299° |
| 2026-04-22 20:51 | 20.49170 | -156.42097 | 22099 ft | 328 kts | 299° |
| 2026-04-22 20:51 | 20.50246 | -156.44246 | 22096 ft | 326 kts | 299° |
| 2026-04-22 20:51 | 20.51307 | -156.46364 | 22099 ft | 327 kts | 299° |
| 2026-04-22 20:52 | 20.52375 | -156.48498 | 22098 ft | 326 kts | 299° |
| 2026-04-22 20:52 | 20.53446 | -156.50639 | 22101 ft | 327 kts | 299° |
| 2026-04-22 20:52 | 20.54520 | -156.52788 | 22101 ft | 328 kts | 299° |
| 2026-04-22 20:52 | 20.55509 | -156.54767 | 22098 ft | 327 kts | 299° |
| 2026-04-22 20:53 | 20.56625 | -156.56999 | 22097 ft | 328 kts | 299° |
| 2026-04-22 20:53 | 20.57687 | -156.59125 | 22095 ft | 327 kts | 299° |
| 2026-04-22 20:53 | 20.58719 | -156.61192 | 22095 ft | 324 kts | 299° |
| 2026-04-22 20:53 | 20.59796 | -156.63351 | 22098 ft | 325 kts | 299° |
| 2026-04-22 20:54 | 20.60809 | -156.65382 | 22095 ft | 324 kts | 298° |
| 2026-04-22 20:54 | 20.61873 | -156.67516 | 22095 ft | 323 kts | 298° |
| 2026-04-22 20:54 | 20.62934 | -156.69643 | 22099 ft | 324 kts | 298° |
| 2026-04-22 20:54 | 20.63876 | -156.71535 | 22092 ft | 322 kts | 298° |
| 2026-04-22 20:55 | 20.64974 | -156.73740 | 22095 ft | 323 kts | 298° |
| 2026-04-22 20:55 | 20.66035 | -156.75870 | 22096 ft | 323 kts | 298° |
| 2026-04-22 20:55 | 20.67036 | -156.77881 | 22097 ft | 320 kts | 298° |
| 2026-04-22 20:55 | 20.68097 | -156.80016 | 22103 ft | 322 kts | 298° |
| 2026-04-22 20:56 | 20.69124 | -156.82083 | 22102 ft | 322 kts | 299° |
| 2026-04-22 20:56 | 20.70163 | -156.84172 | 22108 ft | 322 kts | 298° |
| 2026-04-22 20:56 | 20.71232 | -156.86320 | 21921 ft | 330 kts | 299° |
| 2026-04-22 20:56 | 20.72239 | -156.88345 | 21634 ft | 337 kts | 299° |
| 2026-04-22 20:57 | 20.73395 | -156.90669 | 21255 ft | 346 kts | 299° |
| 2026-04-22 20:57 | 20.74517 | -156.92928 | 20866 ft | 354 kts | 299° |
| 2026-04-22 20:57 | 20.75684 | -156.95279 | 20441 ft | 353 kts | 299° |
| 2026-04-22 20:57 | 20.76737 | -156.97626 | 20032 ft | 352 kts | 294° |
| 2026-04-22 20:58 | 20.77556 | -157.00081 | 19625 ft | 348 kts | 291° |
| 2026-04-22 20:58 | 20.78321 | -157.02484 | 19242 ft | 345 kts | 291° |
| 2026-04-22 20:58 | 20.79098 | -157.04918 | 18831 ft | 345 kts | 291° |
| 2026-04-22 20:58 | 20.79852 | -157.07280 | 18422 ft | 340 kts | 291° |
| 2026-04-22 20:59 | 20.80619 | -157.09676 | 17972 ft | 342 kts | 291° |
| 2026-04-22 20:59 | 20.81396 | -157.12091 | 17533 ft | 343 kts | 291° |
| 2026-04-22 20:59 | 20.82156 | -157.14458 | 17105 ft | 339 kts | 291° |
| 2026-04-22 20:59 | 20.82919 | -157.16832 | 16715 ft | 341 kts | 291° |
| 2026-04-22 21:00 | 20.83694 | -157.19241 | 16299 ft | 338 kts | 291° |
| 2026-04-22 21:00 | 20.84451 | -157.21596 | 15918 ft | 338 kts | 291° |
| 2026-04-22 21:00 | 20.85218 | -157.23978 | 15526 ft | 340 kts | 292° |
| 2026-04-22 21:00 | 20.85978 | -157.26337 | 15131 ft | 339 kts | 292° |
| 2026-04-22 21:01 | 20.86744 | -157.28717 | 14740 ft | 339 kts | 292° |
| 2026-04-22 21:01 | 20.87513 | -157.31108 | 14342 ft | 340 kts | 292° |
| 2026-04-22 21:01 | 20.88277 | -157.33485 | 13950 ft | 339 kts | 292° |
| 2026-04-22 21:01 | 20.89042 | -157.35869 | 13561 ft | 340 kts | 292° |
| 2026-04-22 21:02 | 20.89796 | -157.38222 | 13172 ft | 339 kts | 292° |
| 2026-04-22 21:02 | 20.90555 | -157.40588 | 12782 ft | 337 kts | 291° |
| 2026-04-22 21:02 | 20.91317 | -157.42963 | 12391 ft | 338 kts | 291° |
| 2026-04-22 21:02 | 20.92023 | -157.45175 | 12008 ft | 324 kts | 291° |
| 2026-04-22 21:03 | 20.92748 | -157.47456 | 11635 ft | 312 kts | 290° |
| 2026-04-22 21:03 | 20.93428 | -157.49591 | 11287 ft | 302 kts | 290° |
| 2026-04-22 21:03 | 20.94083 | -157.51646 | 10947 ft | 292 kts | 290° |
| 2026-04-22 21:03 | 20.94727 | -157.53665 | 10619 ft | 285 kts | 290° |
| 2026-04-22 21:04 | 20.95363 | -157.55652 | 10297 ft | 284 kts | 290° |
| 2026-04-22 21:04 | 20.95998 | -157.57629 | 9976 ft | 285 kts | 290° |
| 2026-04-22 21:04 | 20.96634 | -157.59618 | 9758 ft | 283 kts | 290° |
| 2026-04-22 21:04 | 20.97257 | -157.61566 | 9542 ft | 278 kts | 290° |
| 2026-04-22 21:05 | 20.97879 | -157.63515 | 9331 ft | 276 kts | 289° |
| 2026-04-22 21:05 | 20.98472 | -157.65375 | 9119 ft | 268 kts | 289° |
| 2026-04-22 21:05 | 20.98862 | -157.66611 | 8961 ft | 258 kts | 289° |
| 2026-04-22 21:06 | 21.00103 | -157.70493 | 7878 ft | 274 kts | 289° |
| 2026-04-22 21:06 | 21.00633 | -157.72160 | 7464 ft | 265 kts | 289° |
| 2026-04-22 21:06 | 21.01268 | -157.74171 | 7086 ft | 249 kts | 289° |
| 2026-04-22 21:06 | 21.01953 | -157.76340 | 6660 ft | 237 kts | 290° |
| 2026-04-22 21:07 | 21.02443 | -157.77869 | 6386 ft | 244 kts | 290° |
| 2026-04-22 21:07 | 21.03006 | -157.79627 | 6077 ft | 246 kts | 290° |
| 2026-04-22 21:07 | 21.03557 | -157.81358 | 5766 ft | 248 kts | 290° |
| 2026-04-22 21:07 | 21.04058 | -157.82935 | 5479 ft | 246 kts | 289° |
| 2026-04-22 21:08 | 21.04625 | -157.84723 | 5132 ft | 242 kts | 290° |
| 2026-04-22 21:08 | 21.05167 | -157.86429 | 4832 ft | 242 kts | 290° |
| 2026-04-22 21:08 | 21.05655 | -157.87970 | 4553 ft | 240 kts | 290° |
| 2026-04-22 21:08 | 21.06192 | -157.89664 | 4231 ft | 238 kts | 290° |
| 2026-04-22 21:09 | 21.06717 | -157.91319 | 4006 ft | 232 kts | 290° |
| 2026-04-22 21:09 | 21.07201 | -157.92839 | 3978 ft | 232 kts | 290° |
| 2026-04-22 21:09 | 21.07575 | -157.94507 | 3906 ft | 222 kts | 278° |
| 2026-04-22 21:09 | 21.07749 | -157.96132 | 3876 ft | 216 kts | 279° |
| 2026-04-22 21:10 | 21.07981 | -157.97652 | 3798 ft | 211 kts | 282° |
| 2026-04-22 21:10 | 21.08307 | -157.99191 | 3725 ft | 208 kts | 285° |
| 2026-04-22 21:10 | 21.08696 | -158.00618 | 3663 ft | 205 kts | 289° |
| 2026-04-22 21:10 | 21.09161 | -158.02010 | 3602 ft | 206 kts | 292° |
| 2026-04-22 21:11 | 21.09736 | -158.03442 | 3539 ft | 211 kts | 296° |
| 2026-04-22 21:11 | 21.10378 | -158.04805 | 3476 ft | 213 kts | 300° |
| 2026-04-22 21:11 | 21.11135 | -158.06189 | 3409 ft | 217 kts | 303° |
| 2026-04-22 21:11 | 21.11989 | -158.07541 | 3346 ft | 221 kts | 307° |
| 2026-04-22 21:12 | 21.12831 | -158.08710 | 3278 ft | 222 kts | 310° |
| 2026-04-22 21:12 | 21.13913 | -158.10027 | 3198 ft | 225 kts | 315° |
| 2026-04-22 21:12 | 21.15040 | -158.11211 | 3099 ft | 228 kts | 321° |
| 2026-04-22 21:12 | 21.16433 | -158.11949 | 3012 ft | 225 kts | 351° |
| 2026-04-22 21:13 | 21.17944 | -158.11673 | 2976 ft | 220 kts | 32° |
| 2026-04-22 21:13 | 21.18897 | -158.10481 | 2980 ft | 206 kts | 58° |
| 2026-04-22 21:13 | 21.19701 | -158.09215 | 2978 ft | 208 kts | 52° |
| 2026-04-22 21:13 | 21.20604 | -158.07982 | 2975 ft | 211 kts | 53° |
| 2026-04-22 21:14 | 21.21460 | -158.06752 | 2974 ft | 211 kts | 53° |
| 2026-04-22 21:14 | 21.22354 | -158.05486 | 2915 ft | 218 kts | 53° |
| 2026-04-22 21:14 | 21.23270 | -158.04196 | 2591 ft | 213 kts | 53° |
| 2026-04-22 21:14 | 21.24118 | -158.03005 | 2248 ft | 194 kts | 53° |
| 2026-04-22 21:15 | 21.24900 | -158.01904 | 1963 ft | 173 kts | 53° |
| 2026-04-22 21:15 | 21.25591 | -158.00920 | 1816 ft | 169 kts | 54° |
| 2026-04-22 21:15 | 21.26295 | -157.99913 | 1620 ft | 169 kts | 53° |
| 2026-04-22 21:15 | 21.26985 | -157.98947 | 1396 ft | 163 kts | 53° |
| 2026-04-22 21:16 | 21.27616 | -157.98053 | 1246 ft | 164 kts | 54° |
| 2026-04-22 21:16 | 21.28334 | -157.97032 | 997 ft | 159 kts | 54° |
| 2026-04-22 21:16 | 21.28982 | -157.96121 | 821 ft | 162 kts | 55° |
| 2026-04-22 21:16 | 21.29632 | -157.95198 | 600 ft | 155 kts | 54° |
| 2026-04-22 21:17 | 21.30293 | -157.94270 | 395 ft | 154 kts | 55° |
| 2026-04-22 21:17 | 21.30912 | -157.93401 | 200 ft | 153 kts | 56° |
| 2026-04-22 21:17 | 21.31556 | -157.92485 | 41 ft | 152 kts | 56° |
| 2026-04-22 21:17 | 21.32017 | -157.91821 | 29 ft | 48 kts | 52° |
| 2026-04-22 21:18 | 21.32177 | -157.91606 | 29 ft | 27 kts | 53° |
| 2026-04-22 21:18 | 21.32245 | -157.91542 | 29 ft | 7 kts | 338° |
| 2026-04-22 21:18 | 21.32272 | -157.91562 | 29 ft | 0 kts | 322° |
| 2026-04-22 21:18 | 21.32311 | -157.91595 | 29 ft | 12 kts | 322° |
| 2026-04-22 21:19 | 21.32381 | -157.91652 | 29 ft | 12 kts | 323° |
| 2026-04-22 21:19 | 21.32449 | -157.91705 | 29 ft | 12 kts | 323° |
| 2026-04-22 21:19 | 21.32513 | -157.91757 | 29 ft | 11 kts | 323° |
| 2026-04-22 21:19 | 21.32579 | -157.91806 | 29 ft | 11 kts | 326° |
| 2026-04-22 21:20 | 21.32639 | -157.91849 | 29 ft | 11 kts | 326° |
| 2026-04-22 21:20 | 21.32694 | -157.91888 | 29 ft | 4 kts | 321° |
| 2026-04-22 21:20 | 21.32722 | -157.91911 | 30 ft | 5 kts | 322° |
| 2026-04-22 21:20 | 21.32766 | -157.91950 | 30 ft | 9 kts | 309° |
| 2026-04-22 21:21 | 21.32773 | -157.92015 | 30 ft | 10 kts | 268° |
| 2026-04-22 21:21 | 21.32773 | -157.92111 | 30 ft | 12 kts | 270° |
| 2026-04-22 21:21 | 21.32773 | -157.92201 | 30 ft | 11 kts | 269° |
| 2026-04-22 21:21 | 21.32772 | -157.92288 | 30 ft | 11 kts | 269° |
| 2026-04-22 21:22 | 21.32773 | -157.92374 | 30 ft | 11 kts | 271° |
| 2026-04-22 21:22 | 21.32773 | -157.92458 | 30 ft | 11 kts | 270° |
| 2026-04-22 21:22 | 21.32773 | -157.92539 | 30 ft | 10 kts | 269° |
| 2026-04-22 21:22 | 21.32772 | -157.92615 | 30 ft | 9 kts | 269° |
| 2026-04-22 21:23 | 21.32769 | -157.92682 | 30 ft | 9 kts | 265° |
| 2026-04-22 21:23 | 21.32760 | -157.92747 | 30 ft | 8 kts | 257° |
| 2026-04-22 21:23 | 21.32765 | -157.92801 | 30 ft | 7 kts | 331° |
| 2026-04-22 21:23 | 21.32817 | -157.92806 | 30 ft | 8 kts | 359° |
| 2026-04-22 21:24 | 21.32878 | -157.92802 | 30 ft | 8 kts | 12° |
| 2026-04-22 21:24 | 21.32929 | -157.92764 | 30 ft | 9 kts | 46° |
| 2026-04-22 21:24 | 21.32972 | -157.92717 | 30 ft | 8 kts | 45° |
| 2026-04-22 21:24 | 21.33015 | -157.92670 | 30 ft | 9 kts | 46° |
| 2026-04-22 21:25 | 21.33065 | -157.92612 | 30 ft | 11 kts | 47° |
| 2026-04-22 21:25 | 21.33127 | -157.92557 | 30 ft | 11 kts | 20° |
| 2026-04-22 21:25 | 21.33202 | -157.92543 | 30 ft | 10 kts | 6° |
| 2026-04-22 21:25 | 21.33259 | -157.92537 | 30 ft | 4 kts | 7° |
| 2026-04-22 21:26 | 21.33296 | -157.92532 | 30 ft | 5 kts | 7° |
| 2026-04-22 21:26 | 21.33330 | -157.92516 | 30 ft | 5 kts | 36° |
| 2026-04-22 21:26 | 21.33349 | -157.92494 | 30 ft | 3 kts | 83° |
| 2026-04-22 21:26 | 21.33346 | -157.92468 | 30 ft | 3 kts | 100° |
| 2026-04-22 21:27 | 21.33345 | -157.92465 | 30 ft | 0 kts | 99° |